CSS258 ZHCC-ZHHH
Flight info
| Callsign | CSS258 |
|---|---|
| Flight time | 0h 55m |
| Altitude | 27600 |
| Route | DUD9W DUDBI W37 ENLAB |
| Aircraft | B77L/H-SDE1E2E3FGHIJ2J3J4J5M1RWXY/LB1D1 |
Departure
| Time | 2026-04-20 14:05 |
|---|---|
| Airport | Zhengzhou Xinzheng International Airport (ZHCC) |
Arrival
| Time | 2026-04-20 15:00 |
|---|---|
| Airport | Wuhan Tianhe International Airport (ZHHH) |
| Time | Latitude | Longitude | Altitude | Speed | Heading |
|---|---|---|---|---|---|
| 2026-04-20 13:37 | 34.52948 | 113.82528 | 510 ft | 0 kts | 22° |
| 2026-04-20 13:57 | 34.52942 | 113.82524 | 510 ft | 4 kts | 22° |
| 2026-04-20 13:57 | 34.52917 | 113.82512 | 510 ft | 4 kts | 24° |
| 2026-04-20 13:57 | 34.52893 | 113.82497 | 510 ft | 4 kts | 32° |
| 2026-04-20 13:58 | 34.52873 | 113.82478 | 510 ft | 4 kts | 69° |
| 2026-04-20 13:58 | 34.52871 | 113.82464 | 510 ft | 1 kts | 112° |
| 2026-04-20 14:02 | 34.52857 | 113.82504 | 510 ft | 7 kts | 116° |
| 2026-04-20 14:02 | 34.52827 | 113.82547 | 510 ft | 7 kts | 150° |
| 2026-04-20 14:03 | 34.52759 | 113.82536 | 510 ft | 12 kts | 201° |
| 2026-04-20 14:03 | 34.52680 | 113.82498 | 510 ft | 12 kts | 202° |
| 2026-04-20 14:03 | 34.52602 | 113.82459 | 509 ft | 12 kts | 202° |
| 2026-04-20 14:03 | 34.52523 | 113.82435 | 509 ft | 12 kts | 160° |
| 2026-04-20 14:04 | 34.52480 | 113.82526 | 508 ft | 16 kts | 112° |
| 2026-04-20 14:04 | 34.52387 | 113.82799 | 508 ft | 54 kts | 112° |
| 2026-04-20 14:04 | 34.52190 | 113.83372 | 508 ft | 105 kts | 112° |
| 2026-04-20 14:04 | 34.51796 | 113.84581 | 545 ft | 198 kts | 108° |
| 2026-04-20 14:05 | 34.51354 | 113.86248 | 1382 ft | 205 kts | 111° |
| 2026-04-20 14:05 | 34.50545 | 113.87677 | 2112 ft | 210 kts | 139° |
| 2026-04-20 14:05 | 34.49373 | 113.88868 | 2396 ft | 233 kts | 139° |
| 2026-04-20 14:05 | 34.48139 | 113.90208 | 3009 ft | 244 kts | 137° |
| 2026-04-20 14:06 | 34.46866 | 113.91629 | 3673 ft | 254 kts | 136° |
| 2026-04-20 14:06 | 34.45557 | 113.93114 | 4403 ft | 261 kts | 135° |
| 2026-04-20 14:06 | 34.44221 | 113.94638 | 5243 ft | 265 kts | 134° |
| 2026-04-20 14:06 | 34.42880 | 113.96175 | 6108 ft | 266 kts | 134° |
| 2026-04-20 14:07 | 34.41533 | 113.97722 | 6964 ft | 268 kts | 134° |
| 2026-04-20 14:07 | 34.40158 | 113.99266 | 7703 ft | 272 kts | 136° |
| 2026-04-20 14:07 | 34.38742 | 114.00817 | 8445 ft | 277 kts | 136° |
| 2026-04-20 14:07 | 34.37303 | 114.02390 | 9205 ft | 280 kts | 137° |
| 2026-04-20 14:08 | 34.35846 | 114.03984 | 9782 ft | 284 kts | 137° |
| 2026-04-20 14:08 | 34.34365 | 114.05606 | 9834 ft | 291 kts | 137° |
| 2026-04-20 14:08 | 34.32870 | 114.07244 | 9834 ft | 289 kts | 138° |
| 2026-04-20 14:08 | 34.31247 | 114.08627 | 9831 ft | 285 kts | 152° |
| 2026-04-20 14:09 | 34.29445 | 114.09653 | 9836 ft | 288 kts | 155° |
| 2026-04-20 14:09 | 34.27611 | 114.10652 | 9854 ft | 290 kts | 154° |
| 2026-04-20 14:09 | 34.25812 | 114.11663 | 10433 ft | 291 kts | 154° |
| 2026-04-20 14:09 | 34.23937 | 114.12730 | 10848 ft | 309 kts | 155° |
| 2026-04-20 14:10 | 34.21914 | 114.13888 | 11033 ft | 335 kts | 155° |
| 2026-04-20 14:10 | 34.19730 | 114.15142 | 11230 ft | 360 kts | 155° |
| 2026-04-20 14:10 | 34.17409 | 114.16476 | 11678 ft | 376 kts | 155° |
| 2026-04-20 14:10 | 34.15007 | 114.17858 | 12362 ft | 387 kts | 155° |
| 2026-04-20 14:11 | 34.12560 | 114.19268 | 13232 ft | 393 kts | 156° |
| 2026-04-20 14:11 | 34.10076 | 114.20697 | 14066 ft | 399 kts | 156° |
| 2026-04-20 14:11 | 34.07553 | 114.22148 | 14828 ft | 404 kts | 156° |
| 2026-04-20 14:11 | 34.05006 | 114.23613 | 15659 ft | 407 kts | 157° |
| 2026-04-20 14:12 | 34.02439 | 114.25088 | 16470 ft | 411 kts | 157° |
| 2026-04-20 14:12 | 33.99845 | 114.26577 | 17255 ft | 415 kts | 157° |
| 2026-04-20 14:12 | 33.97220 | 114.28082 | 18017 ft | 420 kts | 158° |
| 2026-04-20 14:12 | 33.94600 | 114.29584 | 18710 ft | 425 kts | 158° |
| 2026-04-20 14:13 | 33.91881 | 114.31141 | 19321 ft | 430 kts | 158° |
| 2026-04-20 14:13 | 33.89161 | 114.32698 | 19915 ft | 436 kts | 158° |
| 2026-04-20 14:13 | 33.86404 | 114.34274 | 20517 ft | 441 kts | 158° |
| 2026-04-20 14:13 | 33.83614 | 114.35869 | 21113 ft | 446 kts | 159° |
| 2026-04-20 14:14 | 33.80792 | 114.37480 | 21698 ft | 452 kts | 159° |
| 2026-04-20 14:14 | 33.77937 | 114.39110 | 22248 ft | 457 kts | 159° |
| 2026-04-20 14:14 | 33.75049 | 114.40757 | 22778 ft | 463 kts | 159° |
| 2026-04-20 14:14 | 33.72123 | 114.42424 | 23297 ft | 468 kts | 159° |
| 2026-04-20 14:15 | 33.69162 | 114.44110 | 23819 ft | 473 kts | 159° |
| 2026-04-20 14:15 | 33.66173 | 114.45812 | 24289 ft | 477 kts | 159° |
| 2026-04-20 14:15 | 33.63201 | 114.47503 | 24772 ft | 481 kts | 159° |
| 2026-04-20 14:15 | 33.60166 | 114.49229 | 25255 ft | 484 kts | 159° |
| 2026-04-20 14:16 | 33.57102 | 114.50969 | 25711 ft | 489 kts | 159° |
| 2026-04-20 14:16 | 33.54010 | 114.52722 | 25780 ft | 495 kts | 159° |
| 2026-04-20 14:16 | 33.50903 | 114.54485 | 25778 ft | 493 kts | 159° |
| 2026-04-20 14:16 | 33.47813 | 114.56239 | 25774 ft | 489 kts | 159° |
| 2026-04-20 14:17 | 33.44743 | 114.57980 | 25760 ft | 488 kts | 160° |
| 2026-04-20 14:17 | 33.41659 | 114.59723 | 26049 ft | 493 kts | 160° |
| 2026-04-20 14:17 | 33.38546 | 114.61480 | 26523 ft | 496 kts | 160° |
| 2026-04-20 14:17 | 33.35416 | 114.63247 | 27024 ft | 499 kts | 160° |
| 2026-04-20 14:18 | 33.32262 | 114.65027 | 27503 ft | 502 kts | 160° |
| 2026-04-20 14:18 | 33.29078 | 114.66822 | 27702 ft | 512 kts | 160° |
| 2026-04-20 14:18 | 33.25837 | 114.68647 | 27747 ft | 518 kts | 160° |
| 2026-04-20 14:18 | 33.22580 | 114.70430 | 27757 ft | 507 kts | 164° |
| 2026-04-20 14:19 | 33.19235 | 114.71469 | 27772 ft | 489 kts | 180° |
| 2026-04-20 14:19 | 33.15913 | 114.71343 | 27770 ft | 469 kts | 194° |
| 2026-04-20 14:19 | 33.12656 | 114.70806 | 27786 ft | 477 kts | 192° |
| 2026-04-20 14:19 | 33.09328 | 114.70403 | 27787 ft | 484 kts | 191° |
| 2026-04-20 14:20 | 33.05960 | 114.70076 | 27773 ft | 485 kts | 190° |
| 2026-04-20 14:20 | 33.02603 | 114.69775 | 27771 ft | 484 kts | 190° |
| 2026-04-20 14:20 | 32.99229 | 114.69464 | 27779 ft | 490 kts | 190° |
| 2026-04-20 14:20 | 32.95824 | 114.69137 | 27769 ft | 488 kts | 190° |
| 2026-04-20 14:21 | 32.92475 | 114.68809 | 27749 ft | 479 kts | 190° |
| 2026-04-20 14:21 | 32.89161 | 114.68481 | 27760 ft | 477 kts | 190° |
| 2026-04-20 14:21 | 32.85857 | 114.68155 | 27762 ft | 476 kts | 190° |
| 2026-04-20 14:21 | 32.82554 | 114.67840 | 27767 ft | 477 kts | 190° |
| 2026-04-20 14:22 | 32.79246 | 114.67531 | 27764 ft | 477 kts | 190° |
| 2026-04-20 14:22 | 32.75942 | 114.67223 | 27766 ft | 477 kts | 190° |
| 2026-04-20 14:22 | 32.72634 | 114.66914 | 27767 ft | 477 kts | 190° |
| 2026-04-20 14:22 | 32.69328 | 114.66605 | 27747 ft | 477 kts | 189° |
| 2026-04-20 14:23 | 32.66017 | 114.66294 | 27769 ft | 477 kts | 189° |
| 2026-04-20 14:23 | 32.62708 | 114.65984 | 27764 ft | 477 kts | 189° |
| 2026-04-20 14:23 | 32.59397 | 114.65673 | 27755 ft | 478 kts | 189° |
| 2026-04-20 14:23 | 32.56083 | 114.65362 | 27761 ft | 478 kts | 189° |
| 2026-04-20 14:24 | 32.52814 | 114.65056 | 27760 ft | 478 kts | 189° |
| 2026-04-20 14:24 | 32.49500 | 114.64746 | 27757 ft | 478 kts | 189° |
| 2026-04-20 14:24 | 32.46164 | 114.64433 | 27752 ft | 485 kts | 189° |
| 2026-04-20 14:24 | 32.42773 | 114.64114 | 27754 ft | 492 kts | 189° |
| 2026-04-20 14:25 | 32.39331 | 114.63792 | 27763 ft | 500 kts | 189° |
| 2026-04-20 14:25 | 32.35842 | 114.63463 | 27759 ft | 506 kts | 189° |
| 2026-04-20 14:25 | 32.32311 | 114.63119 | 27759 ft | 511 kts | 189° |
| 2026-04-20 14:25 | 32.28751 | 114.62768 | 27755 ft | 515 kts | 189° |
| 2026-04-20 14:26 | 32.25183 | 114.62417 | 27746 ft | 514 kts | 189° |
| 2026-04-20 14:26 | 32.21623 | 114.62068 | 27718 ft | 513 kts | 189° |
| 2026-04-20 14:26 | 32.18067 | 114.61721 | 27729 ft | 512 kts | 189° |
| 2026-04-20 14:26 | 32.14514 | 114.61375 | 27735 ft | 512 kts | 189° |
| 2026-04-20 14:27 | 32.10968 | 114.61030 | 27733 ft | 511 kts | 189° |
| 2026-04-20 14:27 | 32.07423 | 114.60684 | 27736 ft | 511 kts | 189° |
| 2026-04-20 14:27 | 32.03883 | 114.60340 | 27737 ft | 511 kts | 189° |
| 2026-04-20 14:27 | 32.00343 | 114.59995 | 27732 ft | 511 kts | 189° |
| 2026-04-20 14:28 | 31.96805 | 114.59651 | 27717 ft | 510 kts | 188° |
| 2026-04-20 14:28 | 31.94461 | 114.59423 | 27723 ft | 510 kts | 188° |
| 2026-04-20 14:28 | 31.89741 | 114.58966 | 27720 ft | 508 kts | 188° |
| 2026-04-20 14:28 | 31.87409 | 114.58740 | 27722 ft | 508 kts | 188° |
| 2026-04-20 14:29 | 31.82748 | 114.58289 | 27719 ft | 507 kts | 188° |
| 2026-04-20 14:29 | 31.79231 | 114.57948 | 27715 ft | 507 kts | 188° |
| 2026-04-20 14:29 | 31.76853 | 114.57717 | 27715 ft | 507 kts | 188° |
| 2026-04-20 14:29 | 31.72246 | 114.57274 | 27688 ft | 491 kts | 188° |
| 2026-04-20 14:30 | 31.68896 | 114.56954 | 27693 ft | 474 kts | 188° |
| 2026-04-20 14:30 | 31.66694 | 114.56743 | 27502 ft | 468 kts | 188° |
| 2026-04-20 14:30 | 31.63450 | 114.56427 | 26877 ft | 466 kts | 188° |
| 2026-04-20 14:30 | 31.60238 | 114.56117 | 26289 ft | 461 kts | 188° |
| 2026-04-20 14:31 | 31.57056 | 114.55812 | 25705 ft | 457 kts | 188° |
| 2026-04-20 14:31 | 31.53899 | 114.55509 | 25136 ft | 453 kts | 188° |
| 2026-04-20 14:31 | 31.50766 | 114.55210 | 24526 ft | 451 kts | 188° |
| 2026-04-20 14:31 | 31.47690 | 114.54916 | 23965 ft | 448 kts | 188° |
| 2026-04-20 14:32 | 31.44548 | 114.54615 | 23322 ft | 446 kts | 188° |
| 2026-04-20 14:32 | 31.41507 | 114.54323 | 22700 ft | 442 kts | 188° |
| 2026-04-20 14:32 | 31.38456 | 114.54031 | 22123 ft | 438 kts | 187° |
| 2026-04-20 14:32 | 31.35435 | 114.53743 | 21569 ft | 434 kts | 187° |
| 2026-04-20 14:33 | 31.32441 | 114.53458 | 21022 ft | 430 kts | 187° |
| 2026-04-20 14:33 | 31.29471 | 114.53175 | 20498 ft | 426 kts | 187° |
| 2026-04-20 14:33 | 31.26545 | 114.52852 | 19960 ft | 416 kts | 192° |
| 2026-04-20 14:33 | 31.23834 | 114.51811 | 19428 ft | 409 kts | 210° |
| 2026-04-20 14:34 | 31.21542 | 114.49906 | 18911 ft | 400 kts | 223° |
| 2026-04-20 14:34 | 31.19482 | 114.47737 | 18381 ft | 399 kts | 223° |
| 2026-04-20 14:34 | 31.17417 | 114.45578 | 17760 ft | 397 kts | 222° |
| 2026-04-20 14:34 | 31.15357 | 114.43442 | 17212 ft | 395 kts | 222° |
| 2026-04-20 14:35 | 31.13303 | 114.41326 | 16683 ft | 392 kts | 222° |
| 2026-04-20 14:35 | 31.11260 | 114.39228 | 16162 ft | 390 kts | 222° |
| 2026-04-20 14:35 | 31.09221 | 114.37146 | 15636 ft | 387 kts | 221° |
| 2026-04-20 14:35 | 31.07202 | 114.35082 | 15130 ft | 385 kts | 221° |
| 2026-04-20 14:36 | 31.05185 | 114.33022 | 14603 ft | 383 kts | 221° |
| 2026-04-20 14:36 | 31.03212 | 114.31008 | 14101 ft | 381 kts | 221° |
| 2026-04-20 14:36 | 31.01217 | 114.28977 | 13538 ft | 380 kts | 221° |
| 2026-04-20 14:36 | 30.99229 | 114.26953 | 12991 ft | 378 kts | 221° |
| 2026-04-20 14:37 | 30.97255 | 114.24944 | 12464 ft | 374 kts | 220° |
| 2026-04-20 14:37 | 30.95302 | 114.22959 | 11958 ft | 371 kts | 220° |
| 2026-04-20 14:37 | 30.93369 | 114.20995 | 11461 ft | 367 kts | 220° |
| 2026-04-20 14:37 | 30.91454 | 114.19050 | 11103 ft | 360 kts | 220° |
| 2026-04-20 14:38 | 30.89597 | 114.17165 | 10902 ft | 349 kts | 219° |
| 2026-04-20 14:38 | 30.87801 | 114.15338 | 10725 ft | 337 kts | 219° |
| 2026-04-20 14:38 | 30.86063 | 114.13580 | 10567 ft | 326 kts | 219° |
| 2026-04-20 14:38 | 30.84384 | 114.11881 | 10435 ft | 314 kts | 219° |
| 2026-04-20 14:39 | 30.82764 | 114.10239 | 10301 ft | 303 kts | 219° |
| 2026-04-20 14:39 | 30.81202 | 114.08656 | 10166 ft | 292 kts | 219° |
| 2026-04-20 14:39 | 30.79698 | 114.07134 | 10049 ft | 281 kts | 219° |
| 2026-04-20 14:39 | 30.78243 | 114.05662 | 9788 ft | 275 kts | 219° |
| 2026-04-20 14:40 | 30.76806 | 114.04210 | 9459 ft | 271 kts | 219° |
| 2026-04-20 14:40 | 30.75391 | 114.02780 | 9143 ft | 268 kts | 219° |
| 2026-04-20 14:40 | 30.73998 | 114.01372 | 8825 ft | 264 kts | 219° |
| 2026-04-20 14:40 | 30.72623 | 113.99984 | 8513 ft | 260 kts | 219° |
| 2026-04-20 14:41 | 30.71268 | 113.98616 | 8209 ft | 256 kts | 219° |
| 2026-04-20 14:41 | 30.69935 | 113.97272 | 7917 ft | 253 kts | 219° |
| 2026-04-20 14:41 | 30.68595 | 113.95923 | 7619 ft | 258 kts | 219° |
| 2026-04-20 14:41 | 30.67242 | 113.94564 | 7493 ft | 255 kts | 219° |
| 2026-04-20 14:42 | 30.65912 | 113.93228 | 7351 ft | 248 kts | 219° |
| 2026-04-20 14:42 | 30.64608 | 113.92037 | 7070 ft | 236 kts | 204° |
| 2026-04-20 14:42 | 30.63053 | 113.91673 | 6834 ft | 228 kts | 174° |
| 2026-04-20 14:42 | 30.61504 | 113.92083 | 6601 ft | 232 kts | 160° |
| 2026-04-20 14:43 | 30.60065 | 113.92950 | 6302 ft | 236 kts | 139° |
| 2026-04-20 14:43 | 30.59156 | 113.94532 | 5933 ft | 236 kts | 116° |
| 2026-04-20 14:43 | 30.58395 | 113.96192 | 5759 ft | 232 kts | 125° |
| 2026-04-20 14:43 | 30.57453 | 113.97696 | 5642 ft | 229 kts | 128° |
| 2026-04-20 14:44 | 30.56789 | 113.99358 | 5558 ft | 233 kts | 98° |
| 2026-04-20 14:44 | 30.57016 | 114.01243 | 5413 ft | 245 kts | 66° |
| 2026-04-20 14:44 | 30.58032 | 114.02857 | 5182 ft | 251 kts | 49° |
| 2026-04-20 14:44 | 30.59302 | 114.04268 | 4852 ft | 252 kts | 44° |
| 2026-04-20 14:45 | 30.60613 | 114.05602 | 4514 ft | 249 kts | 44° |
| 2026-04-20 14:45 | 30.61912 | 114.06915 | 4178 ft | 245 kts | 44° |
| 2026-04-20 14:45 | 30.63186 | 114.08212 | 3849 ft | 242 kts | 44° |
| 2026-04-20 14:45 | 30.64437 | 114.09489 | 3552 ft | 237 kts | 45° |
| 2026-04-20 14:46 | 30.65665 | 114.10744 | 3265 ft | 233 kts | 46° |
| 2026-04-20 14:46 | 30.66860 | 114.11967 | 2955 ft | 226 kts | 46° |
| 2026-04-20 14:46 | 30.68006 | 114.13141 | 2698 ft | 214 kts | 46° |
| 2026-04-20 14:46 | 30.69080 | 114.14237 | 2375 ft | 196 kts | 46° |
| 2026-04-20 14:47 | 30.70043 | 114.15220 | 2129 ft | 174 kts | 46° |
| 2026-04-20 14:47 | 30.70885 | 114.16085 | 1893 ft | 149 kts | 44° |
| 2026-04-20 14:47 | 30.71646 | 114.16826 | 1718 ft | 141 kts | 41° |
| 2026-04-20 14:48 | 30.73127 | 114.18383 | 1340 ft | 144 kts | 43° |
| 2026-04-20 14:48 | 30.73867 | 114.19143 | 1146 ft | 141 kts | 42° |
| 2026-04-20 14:48 | 30.74613 | 114.19873 | 949 ft | 142 kts | 34° |
| 2026-04-20 14:48 | 30.75406 | 114.20617 | 696 ft | 146 kts | 39° |
| 2026-04-20 14:49 | 30.76109 | 114.21476 | 292 ft | 148 kts | 43° |
| 2026-04-20 14:49 | 30.76892 | 114.22141 | 432 ft | 137 kts | 34° |
| 2026-04-20 14:49 | 30.77609 | 114.22852 | 845 ft | 140 kts | 48° |
| 2026-04-20 14:49 | 30.77969 | 114.23902 | 1180 ft | 144 kts | 85° |
| 2026-04-20 14:50 | 30.77941 | 114.25057 | 1307 ft | 143 kts | 89° |
| 2026-04-20 14:50 | 30.77667 | 114.26137 | 1783 ft | 143 kts | 123° |
| 2026-04-20 14:50 | 30.76784 | 114.26742 | 2008 ft | 152 kts | 152° |
| 2026-04-20 14:50 | 30.75914 | 114.27369 | 2131 ft | 145 kts | 137° |
| 2026-04-20 14:51 | 30.75005 | 114.28005 | 1647 ft | 165 kts | 159° |
| 2026-04-20 14:51 | 30.73917 | 114.28309 | 1295 ft | 136 kts | 154° |
| 2026-04-20 14:51 | 30.72992 | 114.28801 | 1317 ft | 152 kts | 149° |
| 2026-04-20 14:51 | 30.72044 | 114.29393 | 1359 ft | 156 kts | 150° |
| 2026-04-20 14:52 | 30.70935 | 114.29480 | 1111 ft | 169 kts | 185° |
| 2026-04-20 14:52 | 30.69799 | 114.29323 | 967 ft | 163 kts | 191° |
| 2026-04-20 14:52 | 30.68744 | 114.28807 | 883 ft | 165 kts | 199° |
| 2026-04-20 14:52 | 30.67755 | 114.28098 | 926 ft | 170 kts | 221° |
| 2026-04-20 14:53 | 30.66836 | 114.27288 | 823 ft | 164 kts | 216° |
| 2026-04-20 14:53 | 30.66006 | 114.26366 | 1022 ft | 167 kts | 228° |
| 2026-04-20 14:53 | 30.65262 | 114.25341 | 1196 ft | 166 kts | 230° |
| 2026-04-20 14:53 | 30.64534 | 114.24289 | 1335 ft | 164 kts | 225° |
| 2026-04-20 14:54 | 30.63788 | 114.23275 | 1517 ft | 170 kts | 230° |
| 2026-04-20 14:54 | 30.63220 | 114.22068 | 1824 ft | 170 kts | 247° |
| 2026-04-20 14:54 | 30.63012 | 114.20702 | 2126 ft | 177 kts | 266° |
| 2026-04-20 14:54 | 30.62953 | 114.19287 | 1925 ft | 174 kts | 259° |
| 2026-04-20 14:55 | 30.62807 | 114.17905 | 1781 ft | 175 kts | 265° |
| 2026-04-20 14:55 | 30.62743 | 114.16519 | 1563 ft | 168 kts | 275° |
| 2026-04-20 14:55 | 30.62966 | 114.15211 | 1325 ft | 162 kts | 286° |
| 2026-04-20 14:55 | 30.63340 | 114.13974 | 1138 ft | 163 kts | 297° |
| 2026-04-20 14:56 | 30.63909 | 114.12875 | 1146 ft | 159 kts | 323° |
| 2026-04-20 14:56 | 30.64878 | 114.12454 | 1138 ft | 146 kts | 0° |
| 2026-04-20 14:56 | 30.65844 | 114.12689 | 1080 ft | 142 kts | 29° |
| 2026-04-20 14:56 | 30.66759 | 114.13159 | 1120 ft | 146 kts | 21° |
| 2026-04-20 14:57 | 30.67615 | 114.13769 | 1002 ft | 147 kts | 43° |
| 2026-04-20 14:57 | 30.68452 | 114.14440 | 675 ft | 143 kts | 31° |
| 2026-04-20 14:57 | 30.69248 | 114.15088 | 454 ft | 138 kts | 32° |
| 2026-04-20 14:57 | 30.70025 | 114.15735 | 369 ft | 142 kts | 41° |
| 2026-04-20 14:58 | 30.70767 | 114.16501 | 453 ft | 142 kts | 38° |
| 2026-04-20 14:58 | 30.71545 | 114.17258 | 633 ft | 143 kts | 40° |
| 2026-04-20 14:58 | 30.72301 | 114.17959 | 722 ft | 138 kts | 20° |
| 2026-04-20 14:58 | 30.73127 | 114.18526 | 721 ft | 142 kts | 36° |
| 2026-04-20 14:59 | 30.73927 | 114.19209 | 659 ft | 144 kts | 43° |
| 2026-04-20 14:59 | 30.74675 | 114.19969 | 518 ft | 142 kts | 40° |
| 2026-04-20 14:59 | 30.75433 | 114.20738 | 222 ft | 141 kts | 38° |
| 2026-04-20 14:59 | 30.76175 | 114.21480 | 151 ft | 141 kts | 39° |
| 2026-04-20 15:00 | 30.76840 | 114.22161 | 112 ft | 109 kts | 41° |
| 2026-04-20 15:00 | 30.77185 | 114.22524 | 111 ft | 0 kts | 44° |
| 2026-04-20 15:00 | 30.77235 | 114.22573 | 109 ft | 16 kts | 41° |
| 2026-04-20 15:00 | 30.77321 | 114.22663 | 112 ft | 17 kts | 44° |
| 2026-04-20 15:01 | 30.77413 | 114.22746 | 111 ft | 17 kts | 27° |
| 2026-04-20 15:01 | 30.77521 | 114.22797 | 112 ft | 17 kts | 21° |
| 2026-04-20 15:01 | 30.77633 | 114.22817 | 111 ft | 17 kts | 336° |
| 2026-04-20 15:01 | 30.77708 | 114.22714 | 108 ft | 17 kts | 290° |